createdAt,value
2023-06-19T00:01:08.420Z,19.50
2023-06-19T00:03:35.355Z,19.40
2023-06-19T00:06:02.193Z,19.40
2023-06-19T00:08:29.053Z,19.30
2023-06-19T00:10:56.322Z,19.20
2023-06-19T00:13:23.121Z,19.20
2023-06-19T00:15:49.955Z,19.10
2023-06-19T00:18:18.169Z,19.10
2023-06-19T00:20:47.146Z,19.10
2023-06-19T00:23:15.643Z,19.00
2023-06-19T00:25:44.434Z,19.00
2023-06-19T00:28:14.712Z,19.00
2023-06-19T00:30:42.455Z,19.00
2023-06-19T00:33:09.709Z,19.10
2023-06-19T00:35:36.555Z,19.00
2023-06-19T00:38:03.995Z,19.00
2023-06-19T00:40:33.746Z,19.00
2023-06-19T00:43:00.832Z,18.90
2023-06-19T00:45:28.729Z,18.90
2023-06-19T00:47:56.842Z,18.80
2023-06-19T00:50:24.830Z,18.80
2023-06-19T00:52:52.514Z,18.60
2023-06-19T00:55:21.179Z,18.60
2023-06-19T00:57:48.569Z,18.50
2023-06-19T01:00:15.587Z,18.50
2023-06-19T01:02:42.595Z,18.40
2023-06-19T01:05:09.454Z,18.40
2023-06-19T01:07:47.651Z,18.30
2023-06-19T01:10:28.113Z,18.30
2023-06-19T01:13:20.169Z,18.20
2023-06-19T01:15:48.376Z,18.20
2023-06-19T01:18:16.831Z,18.10
2023-06-19T01:20:43.697Z,18.10
2023-06-19T01:23:12.241Z,18.10
2023-06-19T01:25:40.259Z,18.10
2023-06-19T01:28:11.812Z,18.00
2023-06-19T01:30:42.154Z,18.00
2023-06-19T01:33:27.066Z,18.00
2023-06-19T01:35:54.110Z,18.00
2023-06-19T01:38:26.782Z,17.90
2023-06-19T01:40:55.923Z,17.90
2023-06-19T01:43:24.194Z,17.90
2023-06-19T01:45:51.327Z,17.90
2023-06-19T01:48:18.126Z,17.80
2023-06-19T01:50:49.542Z,17.70
2023-06-19T01:53:17.011Z,17.90
2023-06-19T01:55:44.338Z,18.10
2023-06-19T01:58:11.185Z,18.20
2023-06-19T02:00:38.481Z,18.30
2023-06-19T02:03:06.163Z,18.40
2023-06-19T02:05:32.985Z,18.50
2023-06-19T02:07:59.807Z,18.50
2023-06-19T02:10:26.580Z,18.50
2023-06-19T02:12:53.364Z,18.50
2023-06-19T02:15:20.222Z,18.50
2023-06-19T02:17:48.501Z,18.50
2023-06-19T02:20:15.347Z,18.70
2023-06-19T02:22:42.554Z,18.90
2023-06-19T02:25:10.823Z,19.20
2023-06-19T02:27:37.631Z,19.30
2023-06-19T02:30:06.071Z,19.40
2023-06-19T02:32:33.135Z,19.50
2023-06-19T02:35:00.064Z,19.60
2023-06-19T02:37:26.903Z,19.60
2023-06-19T02:39:53.761Z,19.60
2023-06-19T02:42:21.724Z,19.70
2023-06-19T02:44:48.571Z,19.90
2023-06-19T02:47:15.358Z,20.00
2023-06-19T02:49:42.142Z,20.00
2023-06-19T02:52:09.521Z,20.10
2023-06-19T02:54:37.428Z,20.10
2023-06-19T02:57:04.471Z,20.10
2023-06-19T02:59:31.274Z,20.00
2023-06-19T03:01:58.011Z,20.00
2023-06-19T03:04:26.746Z,20.00
2023-06-19T03:06:56.012Z,19.90
2023-06-19T03:09:22.821Z,19.80
2023-06-19T03:11:49.645Z,19.80
2023-06-19T03:14:16.471Z,19.80
2023-06-19T03:16:43.316Z,19.90
2023-06-19T03:19:10.153Z,19.90
2023-06-19T03:21:36.981Z,20.00
2023-06-19T03:24:04.740Z,20.00
2023-06-19T03:26:31.579Z,20.10
2023-06-19T03:28:58.369Z,20.20
2023-06-19T03:31:25.159Z,20.20
2023-06-19T03:33:52.054Z,20.20
2023-06-19T03:36:19.914Z,20.30
2023-06-19T03:38:46.729Z,20.50
2023-06-19T03:41:13.529Z,20.50
2023-06-19T03:43:40.620Z,20.60
2023-06-19T03:46:07.448Z,20.70
2023-06-19T03:48:34.252Z,20.70
2023-06-19T03:51:01.815Z,20.70
2023-06-19T03:53:28.656Z,20.70
2023-06-19T03:55:56.766Z,20.70
2023-06-19T03:58:23.987Z,20.70
2023-06-19T04:00:50.980Z,20.70
2023-06-19T04:03:17.853Z,20.60
2023-06-19T04:05:44.758Z,20.60
2023-06-19T04:08:11.546Z,20.50
2023-06-19T04:10:38.396Z,20.50
2023-06-19T04:13:07.782Z,20.40
2023-06-19T04:15:36.662Z,20.30
2023-06-19T04:18:04.211Z,20.30
2023-06-19T04:20:31.011Z,20.30
2023-06-19T04:22:57.813Z,20.30
2023-06-19T04:25:24.738Z,20.20
2023-06-19T04:27:51.541Z,20.20
2023-06-19T04:30:18.357Z,20.20
2023-06-19T04:32:45.408Z,20.20
2023-06-19T04:35:12.354Z,20.20
2023-06-19T04:37:39.216Z,20.10
2023-06-19T04:40:11.956Z,20.10
2023-06-19T04:42:39.765Z,20.10
2023-06-19T04:45:08.196Z,20.10
2023-06-19T04:47:47.964Z,20.00
2023-06-19T04:50:19.979Z,20.20
2023-06-19T04:52:46.826Z,20.10
2023-06-19T04:55:13.599Z,20.10
2023-06-19T04:57:40.384Z,20.10
2023-06-19T05:00:08.499Z,20.20
2023-06-19T05:02:35.494Z,20.30
2023-06-19T05:05:04.413Z,20.30
2023-06-19T05:07:32.370Z,20.30
2023-06-19T05:10:00.061Z,20.40
2023-06-19T05:12:26.907Z,20.40
2023-06-19T05:14:53.711Z,20.40
2023-06-19T05:17:20.931Z,20.40
2023-06-19T05:19:48.002Z,20.40
2023-06-19T05:22:14.995Z,20.40
2023-06-19T05:24:42.004Z,20.50
2023-06-19T05:27:08.938Z,20.50
2023-06-19T05:29:36.076Z,20.60
2023-06-19T05:32:03.041Z,20.50
2023-06-19T05:34:30.253Z,20.50
2023-06-19T05:36:58.845Z,20.50
2023-06-19T05:39:25.802Z,20.40
2023-06-19T05:41:52.610Z,20.50
2023-06-19T05:44:20.883Z,20.50
2023-06-19T05:46:47.692Z,20.60
2023-06-19T05:49:17.051Z,20.70
2023-06-19T05:51:45.006Z,20.80
2023-06-19T05:54:11.983Z,20.80
2023-06-19T05:56:38.801Z,20.90
2023-06-19T05:59:05.626Z,20.90
2023-06-19T06:01:32.846Z,20.90
2023-06-19T06:03:59.762Z,20.90
2023-06-19T06:06:27.069Z,20.90
2023-06-19T06:08:55.906Z,21.00
2023-06-19T06:11:23.764Z,21.10
2023-06-19T06:13:50.684Z,21.10
2023-06-19T06:16:17.570Z,21.20
2023-06-19T06:18:46.031Z,21.30
2023-06-19T06:21:15.191Z,21.30
2023-06-19T06:23:46.163Z,21.30
2023-06-19T06:26:13.156Z,21.30
2023-06-19T06:28:40.361Z,21.40
2023-06-19T06:31:09.564Z,21.40
2023-06-19T06:33:36.380Z,21.30
2023-06-19T06:36:08.794Z,21.20
2023-06-19T06:38:39.969Z,21.30
2023-06-19T06:41:11.369Z,21.30
2023-06-19T06:46:30.040Z,21.30
2023-06-19T06:48:56.931Z,21.40
2023-06-19T06:51:29.209Z,21.40
2023-06-19T06:53:55.986Z,21.50
2023-06-19T06:56:22.949Z,21.60
2023-06-19T06:58:49.747Z,21.80
2023-06-19T07:01:16.691Z,21.90
2023-06-19T07:03:43.744Z,21.90
2023-06-19T07:06:10.848Z,21.90
2023-06-19T07:08:38.304Z,22.00
2023-06-19T07:11:05.170Z,21.90
2023-06-19T07:13:31.988Z,22.10
2023-06-19T07:16:00.272Z,22.10
2023-06-19T07:18:27.056Z,22.20
2023-06-19T07:20:53.947Z,22.30
2023-06-19T07:23:20.923Z,22.30
2023-06-19T07:25:48.364Z,22.20
2023-06-19T07:28:15.962Z,22.30
2023-06-19T07:30:42.911Z,22.40
2023-06-19T07:33:09.853Z,22.50
2023-06-19T07:35:36.695Z,22.50
2023-06-19T07:38:03.629Z,22.60
2023-06-19T07:40:30.426Z,22.60
2023-06-19T07:42:57.195Z,22.60
2023-06-19T07:45:24.548Z,22.60
2023-06-19T07:47:58.557Z,22.50
2023-06-19T07:50:27.593Z,22.70
2023-06-19T07:52:54.728Z,22.90
2023-06-19T07:55:21.584Z,22.90
2023-06-19T07:57:48.497Z,23.00
2023-06-19T08:00:15.826Z,23.20
2023-06-19T08:02:43.621Z,23.30
2023-06-19T08:05:11.745Z,23.30
2023-06-19T08:07:39.143Z,23.20
2023-06-19T08:10:13.117Z,23.20
2023-06-19T08:12:54.328Z,23.20
2023-06-19T08:15:21.441Z,23.10
2023-06-19T08:17:48.321Z,23.10
2023-06-19T08:20:16.651Z,23.20
2023-06-19T08:22:43.393Z,23.40
2023-06-19T08:25:10.154Z,23.50
2023-06-19T08:27:36.944Z,23.50
2023-06-19T08:30:04.202Z,23.50
2023-06-19T08:32:31.416Z,23.60
2023-06-19T08:34:58.277Z,23.60
2023-06-19T08:37:25.129Z,23.60
2023-06-19T08:39:51.936Z,23.50
2023-06-19T08:42:18.979Z,23.40
2023-06-19T08:44:45.904Z,23.50
2023-06-19T08:47:12.819Z,23.50
2023-06-19T08:49:40.958Z,23.50
2023-06-19T08:52:08.708Z,23.60
2023-06-19T08:54:44.934Z,23.70
2023-06-19T08:57:13.353Z,24.00
2023-06-19T08:59:40.473Z,24.10
2023-06-19T09:02:07.700Z,24.00
2023-06-19T09:04:35.112Z,23.90
2023-06-19T09:07:04.576Z,24.00
2023-06-19T09:09:33.331Z,24.20
2023-06-19T09:12:07.349Z,24.40
2023-06-19T09:14:42.670Z,24.50
2023-06-19T09:17:16.698Z,24.60
2023-06-19T09:19:51.028Z,24.60
2023-06-19T09:22:20.090Z,24.50
2023-06-19T09:24:47.007Z,24.30
2023-06-19T09:27:19.542Z,24.10
2023-06-19T09:29:50.754Z,24.20
2023-06-19T09:32:23.604Z,24.30
2023-06-19T09:34:53.369Z,24.40
2023-06-19T09:37:25.709Z,24.50
2023-06-19T09:40:01.728Z,24.50
2023-06-19T09:42:33.612Z,24.40
2023-06-19T09:45:06.156Z,24.40
2023-06-19T09:47:40.879Z,24.30
2023-06-19T09:50:08.473Z,24.30
2023-06-19T09:52:35.849Z,24.50
2023-06-19T09:55:05.950Z,24.50
2023-06-19T09:57:33.885Z,24.50
2023-06-19T10:00:16.279Z,24.50
2023-06-19T10:02:46.065Z,24.60
2023-06-19T10:05:15.260Z,24.50
2023-06-19T10:07:45.053Z,24.60
2023-06-19T10:10:24.832Z,24.70
2023-06-19T10:12:58.103Z,24.90
2023-06-19T10:15:28.408Z,25.10
2023-06-19T10:18:06.838Z,25.20
2023-06-19T10:20:46.383Z,25.60
2023-06-19T10:23:37.462Z,25.70
2023-06-19T10:26:07.389Z,26.00
2023-06-19T10:28:34.837Z,26.10
2023-06-19T10:31:09.640Z,26.30
2023-06-19T10:33:41.030Z,26.50
2023-06-19T10:36:28.865Z,26.50
2023-06-19T10:38:56.376Z,26.50
2023-06-19T10:41:28.949Z,26.30
2023-06-19T10:44:03.663Z,26.50
2023-06-19T10:46:33.547Z,26.70
2023-06-19T10:49:05.539Z,26.80
2023-06-19T10:51:36.642Z,27.00
2023-06-19T10:54:03.855Z,27.20
2023-06-19T10:56:30.703Z,27.40
2023-06-19T10:59:02.197Z,27.50
2023-06-19T11:01:45.205Z,27.50
2023-06-19T11:04:14.739Z,27.50
2023-06-19T11:06:43.314Z,27.50
2023-06-19T11:09:13.542Z,27.70
2023-06-19T11:11:46.599Z,27.50
2023-06-19T11:14:15.676Z,27.70
2023-06-19T11:16:49.409Z,28.00
2023-06-19T11:19:26.146Z,28.10
2023-06-19T11:21:53.544Z,28.20
2023-06-19T11:24:21.679Z,28.50
2023-06-19T11:26:51.930Z,28.70
2023-06-19T11:29:22.975Z,28.60
2023-06-19T11:31:54.799Z,28.60
2023-06-19T11:34:40.280Z,29.10
2023-06-19T11:37:19.098Z,29.50
2023-06-19T11:39:47.242Z,29.70
2023-06-19T11:42:17.451Z,29.80
2023-06-19T11:45:06.435Z,30.00
2023-06-19T11:47:38.436Z,30.10
2023-06-19T11:50:06.666Z,30.40
2023-06-19T11:52:33.405Z,30.30
2023-06-19T11:55:00.292Z,30.50
2023-06-19T11:57:28.061Z,30.80
2023-06-19T11:59:55.314Z,30.50
2023-06-19T12:02:22.256Z,30.70
2023-06-19T12:04:49.501Z,30.70
2023-06-19T12:07:16.726Z,31.00
2023-06-19T12:09:44.202Z,31.40
2023-06-19T12:12:11.311Z,31.80
2023-06-19T12:14:38.216Z,32.40
2023-06-19T12:17:05.165Z,32.80
2023-06-19T12:19:32.020Z,32.90
2023-06-19T12:22:00.153Z,33.50
2023-06-19T12:24:27.061Z,33.50
2023-06-19T12:26:53.969Z,34.00
2023-06-19T12:29:21.965Z,33.70
2023-06-19T12:31:49.032Z,33.50
2023-06-19T12:34:29.527Z,33.10
2023-06-19T12:36:58.276Z,32.20
2023-06-19T12:39:25.913Z,31.80
2023-06-19T12:41:53.047Z,31.40
2023-06-19T12:44:21.094Z,31.10
2023-06-19T12:46:47.974Z,30.70
2023-06-19T12:49:14.855Z,30.30
2023-06-19T12:51:41.630Z,30.10
2023-06-19T12:54:08.469Z,29.90
2023-06-19T12:56:35.372Z,29.90
2023-06-19T12:59:02.160Z,30.10
2023-06-19T13:01:29.065Z,30.40
2023-06-19T13:03:55.941Z,30.50
2023-06-19T13:06:23.832Z,30.80
2023-06-19T13:08:50.679Z,31.30
2023-06-19T13:11:17.766Z,31.90
2023-06-19T13:13:44.640Z,32.20
2023-06-19T13:16:14.589Z,32.10
2023-06-19T13:18:41.870Z,32.40
2023-06-19T13:21:08.760Z,32.80
2023-06-19T13:23:35.779Z,33.00
2023-06-19T13:26:02.759Z,33.20
2023-06-19T13:28:29.536Z,33.20
2023-06-19T13:30:56.286Z,33.70
2023-06-19T13:33:23.117Z,33.90
2023-06-19T13:35:49.897Z,33.60
2023-06-19T13:38:18.184Z,32.80
2023-06-19T13:40:45.136Z,32.40
2023-06-19T13:43:12.093Z,32.70
2023-06-19T13:45:39.741Z,33.00
2023-06-19T13:48:06.944Z,33.50
2023-06-19T13:50:34.153Z,34.10
2023-06-19T13:53:02.923Z,34.30
2023-06-19T13:55:29.769Z,33.80
2023-06-19T13:57:56.526Z,33.50
2023-06-19T14:00:23.681Z,33.30
2023-06-19T14:02:52.291Z,33.40
2023-06-19T14:05:19.155Z,33.40
2023-06-19T14:07:45.970Z,33.20
2023-06-19T14:10:12.993Z,33.50
2023-06-19T14:12:39.869Z,33.40
2023-06-19T14:15:09.294Z,33.50
2023-06-19T14:17:36.250Z,33.30
2023-06-19T14:20:05.539Z,32.90
2023-06-19T14:22:32.649Z,32.60
2023-06-19T14:25:00.431Z,32.20
2023-06-19T14:27:27.748Z,32.10
2023-06-19T14:29:56.188Z,31.70
2023-06-19T14:32:26.891Z,31.20
2023-06-19T14:34:54.659Z,31.10
2023-06-19T14:37:22.063Z,31.30
2023-06-19T14:39:48.911Z,31.50
2023-06-19T14:42:17.220Z,31.80
2023-06-19T14:44:44.079Z,31.80
2023-06-19T14:47:10.951Z,31.50
2023-06-19T14:49:39.216Z,31.10
2023-06-19T14:52:07.368Z,30.80
2023-06-19T14:54:34.153Z,30.50
2023-06-19T14:57:00.932Z,30.30
2023-06-19T14:59:27.900Z,30.40
2023-06-19T15:01:54.784Z,30.60
2023-06-19T15:04:21.677Z,30.80
2023-06-19T15:06:48.488Z,31.10
2023-06-19T15:09:15.274Z,31.30
2023-06-19T15:11:42.019Z,31.20
2023-06-19T15:14:09.197Z,31.30
2023-06-19T15:16:37.791Z,31.00
2023-06-19T15:19:05.301Z,30.90
2023-06-19T15:21:32.321Z,30.80
2023-06-19T15:23:59.178Z,30.90
2023-06-19T15:26:26.588Z,31.10
2023-06-19T15:28:54.680Z,31.20
2023-06-19T15:31:23.586Z,30.90
2023-06-19T15:33:51.053Z,30.60
2023-06-19T15:36:18.059Z,30.40
2023-06-19T15:38:45.494Z,30.30
2023-06-19T15:41:12.451Z,30.10
2023-06-19T15:43:40.118Z,30.10
2023-06-19T15:46:08.814Z,30.10
2023-06-19T15:48:35.828Z,30.30
2023-06-19T15:51:02.682Z,30.40
2023-06-19T15:53:29.615Z,30.10
2023-06-19T15:55:56.487Z,29.90
2023-06-19T15:58:23.331Z,29.80
2023-06-19T16:00:53.586Z,29.50
2023-06-19T16:03:21.405Z,29.40
2023-06-19T16:06:06.044Z,29.30
2023-06-19T16:08:34.917Z,29.30
2023-06-19T16:11:04.123Z,29.20
2023-06-19T16:13:31.366Z,29.30
2023-06-19T16:15:58.228Z,29.50
2023-06-19T16:18:25.045Z,29.70
2023-06-19T16:20:51.776Z,29.90
2023-06-19T16:23:20.325Z,30.20
2023-06-19T16:25:47.072Z,30.40
2023-06-19T16:28:13.928Z,30.30
2023-06-19T16:30:40.699Z,30.20
2023-06-19T16:33:07.666Z,29.90
2023-06-19T16:35:34.514Z,29.80
2023-06-19T16:38:07.593Z,29.80
2023-06-19T16:40:34.471Z,29.80
2023-06-19T16:43:01.324Z,29.80
2023-06-19T16:45:28.304Z,29.90
2023-06-19T16:47:55.490Z,29.80
2023-06-19T16:50:23.045Z,29.80
2023-06-19T16:52:51.200Z,30.00
2023-06-19T16:55:18.380Z,30.10
2023-06-19T16:57:45.473Z,30.20
2023-06-19T17:00:12.911Z,30.30
2023-06-19T17:02:39.918Z,30.00
2023-06-19T17:05:07.506Z,29.70
2023-06-19T17:07:34.298Z,29.50
2023-06-19T17:10:02.267Z,29.20
2023-06-19T17:12:29.093Z,28.90
2023-06-19T17:14:57.636Z,28.50
2023-06-19T17:17:24.401Z,28.30
2023-06-19T17:19:51.197Z,28.10
2023-06-19T17:22:18.013Z,28.00
2023-06-19T17:24:44.828Z,27.70
2023-06-19T17:27:11.655Z,27.40
2023-06-19T17:29:38.621Z,27.20
2023-06-19T17:32:06.559Z,27.10
2023-06-19T17:34:33.552Z,27.10
2023-06-19T17:37:00.362Z,27.00
2023-06-19T17:39:29.117Z,26.90
2023-06-19T17:41:55.889Z,26.90
2023-06-19T17:44:26.516Z,26.90
2023-06-19T17:46:53.936Z,26.80
2023-06-19T17:49:22.243Z,26.90
2023-06-19T17:51:49.297Z,26.80
2023-06-19T17:54:18.153Z,26.70
2023-06-19T17:56:45.618Z,26.60
2023-06-19T17:59:16.389Z,26.60
2023-06-19T18:01:43.193Z,26.60
2023-06-19T18:04:10.297Z,26.50
2023-06-19T18:06:37.186Z,26.40
2023-06-19T18:09:06.671Z,26.30
2023-06-19T18:11:33.818Z,26.10
2023-06-19T18:14:00.886Z,26.00
2023-06-19T18:16:30.292Z,25.80
2023-06-19T18:18:57.188Z,25.70
2023-06-19T18:21:24.141Z,25.60
2023-06-19T18:23:51.134Z,25.40
2023-06-19T18:26:18.272Z,25.30
2023-06-19T18:28:45.505Z,25.20
2023-06-19T18:31:12.632Z,25.00
2023-06-19T18:33:39.439Z,24.90
2023-06-19T18:36:06.804Z,24.70
2023-06-19T18:38:34.946Z,24.60
2023-06-19T18:41:01.957Z,24.40
2023-06-19T18:43:28.761Z,24.30
2023-06-19T18:45:55.701Z,24.20
2023-06-19T18:48:22.639Z,24.00
2023-06-19T18:50:50.093Z,23.90
2023-06-19T18:53:17.679Z,23.80
2023-06-19T18:55:45.410Z,23.60
2023-06-19T18:58:12.936Z,23.60
2023-06-19T19:00:40.262Z,23.40
2023-06-19T19:03:08.550Z,23.30
2023-06-19T19:05:36.958Z,23.20
2023-06-19T19:08:04.013Z,23.10
2023-06-19T19:10:30.805Z,23.00
2023-06-19T19:12:57.597Z,22.80
2023-06-19T19:15:24.918Z,22.80
2023-06-19T19:17:52.073Z,22.60
2023-06-19T19:20:18.997Z,22.60
2023-06-19T19:22:47.021Z,22.50
2023-06-19T19:25:14.032Z,22.40
2023-06-19T19:27:41.213Z,22.30
2023-06-19T19:30:08.860Z,22.20
2023-06-19T19:32:35.900Z,22.10
2023-06-19T19:35:03.020Z,22.00
2023-06-19T19:37:29.864Z,21.90
2023-06-19T19:39:59.800Z,21.80
2023-06-19T19:42:28.066Z,21.80
2023-06-19T19:44:55.173Z,21.70
2023-06-19T19:47:22.906Z,21.60
2023-06-19T19:49:49.842Z,21.50
2023-06-19T19:52:16.629Z,21.40
2023-06-19T19:54:43.481Z,21.40
2023-06-19T19:57:10.404Z,21.40
2023-06-19T19:59:37.171Z,21.30
2023-06-19T20:02:04.379Z,21.20
2023-06-19T20:04:31.193Z,21.20
2023-06-19T20:06:58.034Z,21.20
2023-06-19T20:09:24.940Z,21.10
2023-06-19T20:11:51.718Z,21.10
2023-06-19T20:14:18.579Z,21.10
2023-06-19T20:16:45.413Z,21.00
2023-06-19T20:19:12.260Z,21.00
2023-06-19T20:21:39.943Z,21.00
2023-06-19T20:24:06.834Z,20.90
2023-06-19T20:26:35.101Z,20.90
2023-06-19T20:29:02.106Z,20.80
2023-06-19T20:31:28.990Z,20.70
2023-06-19T20:33:58.889Z,20.70
2023-06-19T20:36:26.790Z,20.60
2023-06-19T20:38:54.686Z,20.60
2023-06-19T20:41:21.512Z,20.50
2023-06-19T20:43:49.445Z,20.50
2023-06-19T20:46:16.278Z,20.50
2023-06-19T20:48:44.302Z,20.50
2023-06-19T20:51:11.638Z,20.40
2023-06-19T20:53:38.468Z,20.40
2023-06-19T20:56:05.522Z,20.30
2023-06-19T20:58:34.338Z,20.30
2023-06-19T21:01:01.404Z,20.30
2023-06-19T21:03:31.292Z,20.20
2023-06-19T21:05:58.625Z,20.20
2023-06-19T21:08:30.572Z,20.10
2023-06-19T21:10:58.693Z,20.10
2023-06-19T21:13:25.805Z,20.10
2023-06-19T21:15:52.752Z,20.10
2023-06-19T21:18:19.945Z,20.10
2023-06-19T21:20:46.774Z,20.10
2023-06-19T21:23:13.683Z,20.00
2023-06-19T21:25:40.779Z,20.00
2023-06-19T21:28:07.696Z,19.90
2023-06-19T21:30:34.647Z,19.90
2023-06-19T21:33:01.542Z,19.90
2023-06-19T21:35:28.359Z,19.90
2023-06-19T21:37:55.496Z,19.80
2023-06-19T21:40:23.752Z,19.80
2023-06-19T21:42:51.474Z,19.80
2023-06-19T21:45:18.346Z,19.80
2023-06-19T21:47:45.679Z,19.80
2023-06-19T21:50:13.751Z,19.70
2023-06-19T21:52:42.325Z,19.70
2023-06-19T21:55:09.810Z,19.70
2023-06-19T21:57:53.955Z,19.80
2023-06-19T22:00:27.324Z,19.70
2023-06-19T22:02:55.348Z,19.80
2023-06-19T22:05:23.025Z,19.70
2023-06-19T22:07:50.398Z,19.70
2023-06-19T22:10:17.456Z,19.70
2023-06-19T22:12:44.322Z,19.70
2023-06-19T22:15:11.228Z,19.70
2023-06-19T22:17:38.123Z,19.70
2023-06-19T22:20:05.858Z,19.70
2023-06-19T22:22:32.659Z,19.70
2023-06-19T22:25:00.405Z,19.60
2023-06-19T22:27:30.191Z,19.60
2023-06-19T22:29:56.977Z,19.60
2023-06-19T22:32:23.785Z,19.60
2023-06-19T22:34:50.762Z,19.50
2023-06-19T22:37:19.001Z,19.50
2023-06-19T22:39:46.076Z,19.50
2023-06-19T22:42:12.895Z,19.50
2023-06-19T22:44:39.746Z,19.50
2023-06-19T22:47:07.036Z,19.60
2023-06-19T22:49:33.889Z,19.60
2023-06-19T22:52:00.697Z,19.50
2023-06-19T22:54:27.459Z,19.50
2023-06-19T22:56:54.295Z,19.50
2023-06-19T22:59:21.217Z,19.40
2023-06-19T23:01:48.246Z,19.50
2023-06-19T23:04:15.105Z,19.50
2023-06-19T23:06:45.695Z,19.60
2023-06-19T23:09:13.061Z,19.50
2023-06-19T23:11:40.345Z,19.60
2023-06-19T23:14:07.489Z,19.50
2023-06-19T23:16:34.361Z,19.50
2023-06-19T23:19:01.456Z,19.50
2023-06-19T23:21:31.099Z,19.50
2023-06-19T23:24:00.159Z,19.50
2023-06-19T23:26:26.978Z,19.60
2023-06-19T23:28:54.649Z,19.60
2023-06-19T23:31:24.120Z,19.60
2023-06-19T23:34:00.017Z,19.60
2023-06-19T23:36:27.869Z,19.60
2023-06-19T23:38:55.787Z,19.60
2023-06-19T23:41:22.915Z,19.50
2023-06-19T23:43:49.799Z,19.40
2023-06-19T23:46:18.613Z,19.30
2023-06-19T23:48:45.910Z,19.20
2023-06-19T23:51:12.947Z,19.20
2023-06-19T23:53:39.823Z,19.10
2023-06-19T23:56:06.846Z,19.00
2023-06-19T23:58:33.626Z,19.00
